Latest Weather Observations for Green Cape

IDN60801

Issued at 10:05 am EST Saturday 2 August 2014 (issued every 30 minutes, with the page automatically refreshed every 10 minutes)

About weather observations | Map of weather stations | Latest weather observations for NSW | Other Formats
Station Details ID: 069137 Name: GREEN CAPE AWS Lat: -37.26 Lon: 150.05 Height: 19.4 m
Data from the previous 72 hours. | See also: Recent months at Green Cape
Date/Time
EST
Temp
°C
App
Temp
°C
Dew
Point
Rel
Hum
%
Delta-T
°C
Wind Press
QNH
hPa
Press
MSL
hPa
Rain
since 9 am
mm
Dir
 
Spd
km/h
Gust
km/h
Spd
kts
Gust
kts
02/10:00am 9.9 1.1 5.5 74 2.0 WSW 41 48 22 26 1024.7 1024.7 0.0
02/09:30am 8.9 0.4 5.1 77 1.7 W 39 46 21 25 1024.6 - 0.0
02/09:00am 8.1 -0.8 4.9 80 1.4 W 41 50 22 27 1023.9 1023.9 1.0
02/08:30am 7.9 -2.0 4.7 80 1.4 W 46 56 25 30 1023.3 - 1.0
02/08:00am 7.3 -3.5 4.1 80 1.4 W 50 61 27 33 1022.8 1022.8 1.0
02/07:30am 7.4 -4.6 4.5 82 1.3 W 57 67 31 36 1021.9 - 1.0
02/07:00am 7.6 -3.8 4.9 83 1.2 W 54 61 29 33 1021.6 1021.6 1.0
02/06:30am 7.9 -4.0 5.2 83 1.2 WSW 57 69 31 37 1020.6 - 1.0
02/06:00am 7.7 -4.1 4.8 82 1.3 W 56 69 30 37 1020.0 1020.0 1.0
02/05:30am 7.7 -4.1 4.7 81 1.3 WSW 56 67 30 36 1019.2 - 1.0
02/05:00am 7.7 -4.6 5.0 83 1.2 WSW 59 70 32 38 1018.5 1018.5 1.0
02/04:30am 7.7 -5.0 5.3 85 1.1 WSW 61 76 33 41 1017.9 - 1.0
02/04:00am 7.6 -5.0 5.4 86 1.0 WSW 61 74 33 40 1017.5 1017.5 1.0
02/03:30am 7.1 -2.7 5.4 89 0.8 WSW 46 57 25 31 1017.4 - 1.0
02/03:00am 7.3 -3.3 5.1 86 1.0 WSW 50 61 27 33 1017.1 1017.1 0.4
02/02:30am 7.5 -3.4 5.6 88 0.9 W 52 70 28 38 1016.1 - 0.4
02/02:00am 7.3 -5.0 5.3 87 0.9 WSW 59 76 32 41 1015.5 1015.5 0.2
02/01:33am 7.8 -6.5 4.7 81 1.4 W 69 87 37 47 1014.3 - 0.0
02/01:30am 8.1 -5.8 5.0 81 1.4 W 67 82 36 44 1014.3 - 0.0
02/01:00am 8.7 -5.6 4.5 75 1.9 WSW 69 91 37 49 1013.2 1013.2 0.0
02/12:34am 8.9 -3.9 4.3 73 2.0 WSW 61 82 33 44 1012.3 - 0.0
02/12:30am 9.0 -4.2 4.2 72 2.1 W 63 80 34 43 1012.3 - 0.0
02/12:00am 9.3 -5.4 2.6 63 2.8 W 69 91 37 49 1011.8 1011.8 0.0
 
Date/Time
EST
Temp
°C
App
Temp
°C
Dew
Point
Rel
Hum
%
Delta-T
°C
Wind Press
QNH
hPa
Press
MSL
hPa
Rain
since 9 am
mm
Dir
 
Spd
km/h
Gust
km/h
Spd
kts
Gust
kts
01/11:59pm 9.4 -6.2 2.9 64 2.8 W 74 91 40 49 1011.7 - 0.0
01/11:47pm 9.4 -1.6 2.9 64 2.8 W 50 70 27 38 1012.2 - 0.0
01/11:30pm 9.2 0.6 2.5 63 2.8 W 37 48 20 26 1012.5 - 0.0
01/11:10pm 9.2 -0.6 2.3 62 2.9 W 43 63 23 34 1012.3 - 0.0
01/11:00pm 9.2 -1.2 2.1 61 3.0 W 46 61 25 33 1012.1 1012.1 0.0
01/10:30pm 9.5 -0.5 2.1 60 3.1 W 44 61 24 33 1011.7 - 0.0
01/10:28pm 9.6 -0.2 2.2 60 3.1 W 43 61 23 33 1011.7 - 0.0
01/10:00pm 9.4 0.7 2.0 60 3.1 W 37 48 20 26 1011.4 1011.4 0.0
01/09:30pm 9.7 1.3 1.8 58 3.3 W 35 48 19 26 1011.3 - 0.0
01/09:00pm 9.8 0.8 2.4 60 3.1 WSW 39 46 21 25 1010.9 1010.9 0.0
01/08:30pm 10.1 1.0 2.0 57 3.4 WSW 39 50 21 27 1010.2 - 0.0
01/08:00pm 10.6 0.3 2.7 58 3.4 WSW 46 57 25 31 1009.6 1009.6 0.0
01/07:30pm 10.8 -0.6 0.8 50 4.1 WSW 50 70 27 38 1009.3 - 0.0
01/07:27pm 10.9 0.4 1.4 52 4.0 WSW 46 70 25 38 1009.4 - 0.0
01/07:00pm 11.4 0.9 1.6 51 4.2 SW 46 56 25 30 1009.0 1009.0 0.0
01/06:46pm 12.1 4.1 1.4 48 4.5 WSW 33 52 18 28 1008.6 - 0.0
01/06:45pm 12.0 4.1 1.1 47 4.6 WSW 32 46 17 25 1008.6 - 0.0
01/06:30pm 11.2 6.2 -1.5 41 5.0 WNW 15 22 8 12 1008.0 - 0.0
01/06:00pm 11.4 6.2 -2.8 37 5.4 NW 15 22 8 12 1007.1 1007.1 0.0
01/05:30pm 12.8 5.9 0.2 42 5.2 W 26 32 14 17 1006.2 - 0.0
01/05:00pm 13.2 6.1 -1.2 37 5.8 WNW 26 37 14 20 1005.3 1005.3 0.0
01/04:30pm 13.9 7.1 -1.7 34 6.3 WNW 24 39 13 21 1004.8 - 0.0
01/04:00pm 14.3 6.5 -0.5 36 6.2 W 30 39 16 21 1004.4 1004.4 0.0
01/03:30pm 14.5 5.5 0.4 38 6.0 W 37 46 20 25 1003.8 - 0.0
01/03:00pm 14.6 4.8 -0.3 36 6.3 W 41 48 22 26 1003.3 1003.3 0.0
01/02:30pm 14.3 7.5 -1.7 33 6.5 WNW 24 46 13 25 1003.0 - 0.0
01/02:00pm 15.1 7.2 -1.5 32 6.8 WNW 30 41 16 22 1002.8 1002.8 0.0
01/01:30pm 14.8 5.8 -0.1 36 6.3 W 37 52 20 28 1002.5 - 0.0
01/01:00pm 14.7 4.5 -0.2 36 6.3 W 43 54 23 29 1002.4 1002.4 0.0
01/12:55pm 14.7 5.5 -1.0 34 6.5 W 37 52 20 28 1002.4 - 0.0
01/12:39pm 15.3 7.8 -4.1 26 7.5 NW 26 39 14 21 1002.4 - 0.0
01/12:37pm 14.8 5.4 -2.6 30 6.9 W 37 48 20 26 1002.3 - 0.0
01/12:30pm 16.4 13.2 0.9 35 6.8 NNE 7 11 4 6 1002.4 - 0.0
01/12:00pm 15.1 12.6 1.6 40 5.9 S 4 7 2 4 1002.6 1002.6 0.0
01/11:30am 14.6 11.8 2.2 43 5.5 SSE 6 11 3 6 1003.1 - 0.0
01/11:00am 14.8 11.8 0.6 38 6.1 NNE 6 9 3 5 1003.1 1003.1 0.0
01/10:30am 12.8 10.4 -0.1 41 5.3 W 2 4 1 2 1003.3 - 0.0
01/10:00am 12.5 9.4 1.5 47 4.7 WNW 7 15 4 8 1003.4 1003.4 0.0
01/09:30am 11.7 6.6 0.8 47 4.5 WNW 17 32 9 17 1003.5 - 0.0
01/09:00am 11.7 9.2 4.9 63 3.1 WNW 7 11 4 6 1003.5 1003.5 0.0
01/08:30am 10.0 7.6 5.4 73 2.1 SW 7 13 4 7 1003.6 - 0.0
01/08:00am 9.7 7.5 5.5 75 1.9 W 6 11 3 6 1003.4 1003.4 0.0
01/07:30am 8.9 6.7 5.5 79 1.5 W 6 9 3 5 1003.2 - 0.0
01/07:00am 8.5 5.6 4.7 77 1.7 W 9 9 5 5 1003.0 1003.0 0.0
01/06:30am 8.3 5.7 3.4 71 2.1 NW 6 7 3 4 1002.6 - 0.0
01/06:00am 8.2 5.6 4.0 75 1.8 N 7 11 4 6 1001.8 1001.8 0.0
01/05:30am 7.4 3.8 3.1 74 1.8 NNW 11 15 6 8 1002.3 - 0.0
01/05:00am 8.1 5.4 3.6 73 1.9 NNW 7 13 4 7 1001.8 1001.8 0.0
01/04:30am 8.4 2.6 4.4 76 1.8 W 24 32 13 17 1001.4 - 0.0
01/04:00am 8.4 2.1 4.0 74 1.9 W 26 35 14 19 1001.3 1001.3 0.0
01/03:30am 9.1 -0.8 4.9 75 1.9 W 46 56 25 30 1001.4 - 0.0
01/03:00am 9.0 -0.1 4.0 71 2.2 WSW 41 54 22 29 1001.7 1001.7 0.0
01/02:30am 9.4 0.8 4.8 73 2.1 SW 39 48 21 26 1001.6 - 0.0
01/02:00am 9.4 2.0 4.8 73 2.1 SW 33 41 18 22 1001.6 1001.6 0.0
01/01:30am 9.6 2.2 5.2 74 2.0 SW 33 41 18 22 1001.2 - 0.0
01/01:00am 10.2 1.5 5.8 74 2.0 SW 41 50 22 27 1000.8 1000.8 0.0
01/12:30am 10.7 1.6 6.1 73 2.1 SW 43 50 23 27 1000.6 - 0.0
01/12:00am 11.3 2.8 6.8 74 2.2 SW 41 50 22 27 1000.1 1000.1 0.0
 
Date/Time
EST
Temp
°C
App
Temp
°C
Dew
Point
Rel
Hum
%
Delta-T
°C
Wind Press
QNH
hPa
Press
MSL
hPa
Rain
since 9 am
mm
Dir
 
Spd
km/h
Gust
km/h
Spd
kts
Gust
kts
31/11:30pm 11.7 3.4 7.8 77 1.9 SSW 41 46 22 25 999.9 - 0.0
31/11:00pm 11.9 4.0 7.8 76 2.0 SSW 39 46 21 25 999.8 999.8 0.0
31/10:30pm 12.5 4.8 8.6 77 1.9 S 39 46 21 25 999.4 - 0.0
31/10:00pm 12.7 4.1 8.8 77 2.0 S 44 50 24 27 999.0 999.0 0.0
31/09:30pm 13.6 3.9 8.9 73 2.4 S 50 63 27 34 998.7 - 0.0
31/09:21pm 14.5 5.0 8.5 67 3.0 S 48 61 26 33 998.3 - 0.0
31/09:00pm 17.6 12.1 0.7 32 7.5 N 19 22 10 12 998.4 998.4 0.0
31/08:30pm 17.4 12.9 -0.3 30 7.6 NNW 13 20 7 11 998.5 - 0.0
31/08:00pm 18.2 14.0 -1.1 27 8.3 NNW 11 17 6 9 998.4 998.4 0.0
31/07:30pm 18.6 12.9 -0.7 27 8.3 NNW 19 28 10 15 997.9 - 0.0
31/07:00pm 19.0 13.5 -2.0 24 8.9 NNW 17 26 9 14 997.5 997.5 0.0
31/06:30pm 19.6 13.7 -2.1 23 9.2 NNW 19 33 10 18 997.0 - 0.0
31/06:00pm 19.9 13.8 -2.4 22 9.5 NNW 20 33 11 18 996.5 996.5 0.0
31/05:30pm 20.4 14.3 -2.6 21 9.7 N 20 33 11 18 996.0 - 0.0
31/05:00pm 20.9 13.8 -1.0 23 9.6 N 26 39 14 21 995.7 995.7 0.0
31/04:30pm 20.9 14.7 2.2 29 8.7 N 24 37 13 20 995.7 - 0.0
31/04:00pm 21.9 15.0 0.4 24 9.8 N 26 48 14 26 996.1 996.1 0.0
31/03:30pm 22.5 14.8 -0.3 22 10.2 NNW 30 48 16 26 996.3 - 0.0
31/03:02pm 22.7 15.7 2.2 26 9.7 N 28 50 15 27 996.2 - 0.0
31/03:00pm 22.9 16.5 0.7 23 10.3 NNW 24 48 13 26 996.5 996.5 0.0
31/02:42pm 22.8 15.1 0.0 22 10.3 NNW 30 52 16 28 996.6 - 0.0
31/02:30pm 22.7 14.9 1.7 25 9.8 N 32 46 17 25 996.7 - 0.0
31/02:00pm 22.1 13.6 3.3 29 9.1 N 37 57 20 31 996.8 996.8 0.0
31/01:38pm 22.4 13.5 3.0 28 9.3 N 39 63 21 34 997.1 - 0.0
31/01:30pm 22.3 13.9 3.9 30 8.9 N 37 50 20 27 997.4 - 0.0
31/01:23pm 22.1 13.9 4.7 32 8.6 N 37 56 20 30 997.7 - 0.0
31/01:00pm 18.3 8.4 11.1 63 3.9 N 54 70 29 38 997.9 997.9 0.0
31/12:30pm 18.1 8.1 10.7 62 4.0 N 54 65 29 35 998.6 - 0.0
31/12:00pm 17.9 8.9 11.5 66 3.5 N 50 61 27 33 999.6 999.6 0.0
31/11:30am 17.7 9.3 11.0 65 3.6 N 46 56 25 30 1000.7 - 0.0
31/11:00am 17.7 10.6 11.0 65 3.6 N 39 48 21 26 1002.0 1002.0 0.0
31/10:30am 17.8 12.5 11.4 66 3.5 N 30 37 16 20 1003.1 - 0.0
31/10:00am 17.4 14.1 11.7 69 3.1 N 20 28 11 15 1003.7 1003.7 0.0
31/09:30am 16.7 13.1 10.5 67 3.3 N 20 24 11 13 1004.3 - 0.0
31/09:00am 15.6 12.3 9.5 67 3.2 N 17 19 9 10 1004.9 1004.9 0.0
31/08:30am 15.1 11.1 9.0 67 3.1 N 20 24 11 13 1005.2 - 0.0
31/08:00am 14.4 10.2 8.4 67 3.0 N 20 24 11 13 1005.6 1005.6 0.0
31/07:30am 13.8 9.1 7.8 67 3.0 N 22 26 12 14 1005.7 - 0.0
31/07:00am 12.9 8.9 8.2 73 2.3 N 19 22 10 12 1006.0 1006.0 0.0
31/06:30am 12.5 9.5 7.8 73 2.3 N 13 15 7 8 1006.3 - 0.0
31/06:00am 12.4 9.0 7.7 73 2.3 N 15 19 8 10 1006.3 1006.3 0.0
31/05:30am 12.4 9.7 7.5 72 2.4 N 11 15 6 8 1006.4 - 0.0
31/05:00am 12.6 10.7 6.6 67 2.9 N 6 7 3 4 1006.9 1006.9 0.0
31/04:30am 12.6 10.9 7.7 72 2.4 NW 6 9 3 5 1007.0 - 0.0
31/04:00am 12.2 10.4 7.9 75 2.1 WNW 7 9 4 5 1007.4 1007.4 0.0
31/03:30am 13.0 10.6 7.2 68 2.8 N 9 13 5 7 1007.6 - 0.0
31/03:00am 13.2 11.1 6.5 64 3.2 N 7 9 4 5 1008.0 1008.0 0.0
31/02:30am 13.9 11.8 5.8 58 3.8 NNW 6 11 3 6 1008.4 - 0.0
31/02:00am 14.3 11.0 6.2 58 3.9 N 13 15 7 8 1008.8 1008.8 0.0
31/01:30am 14.6 11.1 7.4 62 3.5 N 15 17 8 9 1008.9 - 0.0
31/01:00am 15.2 11.6 8.2 63 3.5 N 17 20 9 11 1009.1 1009.1 0.0
31/12:30am 15.2 12.0 8.4 64 3.4 N 15 19 8 10 1009.2 - 0.0
31/12:00am 14.3 12.4 9.1 71 2.7 N 9 13 5 7 1009.7 1009.7 0.0
 
Date/Time
EST
Temp
°C
App
Temp
°C
Dew
Point
Rel
Hum
%
Delta-T
°C
Wind Press
QNH
hPa
Press
MSL
hPa
Rain
since 9 am
mm
Dir
 
Spd
km/h
Gust
km/h
Spd
kts
Gust
kts
30/11:30pm 15.1 11.9 8.3 64 3.4 N 15 20 8 11 1009.9 - 0.0
30/11:00pm 15.3 12.3 9.4 68 3.0 N 15 19 8 10 1010.3 1010.3 0.0
30/10:30pm 15.7 11.5 8.2 61 3.8 N 20 24 11 13 1010.1 - 0.0
30/10:00pm 15.8 11.3 6.3 53 4.6 N 19 22 10 12 1010.2 1010.2 0.0
30/09:30pm 16.6 12.4 5.9 49 5.2 NNW 17 20 9 11 1010.4 - 0.0
30/09:00pm 15.6 13.3 7.6 59 4.0 N 9 11 5 6 1010.6 1010.6 0.0
30/08:30pm 17.6 13.9 6.2 47 5.6 NNW 15 20 8 11 1010.7 - 0.0
30/08:00pm 17.2 13.5 6.1 48 5.4 NNW 15 19 8 10 1010.7 1010.7 0.0
30/07:30pm 17.9 14.2 6.4 47 5.7 NW 15 20 8 11 1010.7 - 0.0
30/07:00pm 18.0 13.9 6.2 46 5.8 NNW 17 22 9 12 1010.4 1010.4 0.0
30/06:30pm 18.3 14.2 6.2 45 6.0 NW 17 22 9 12 1010.2 - 0.0
30/06:00pm 18.6 14.3 6.8 46 5.9 WNW 19 26 10 14 1010.1 1010.1 0.0
30/05:30pm 18.7 15.6 7.2 47 5.8 NW 13 17 7 9 1009.9 - 0.0
30/05:00pm 19.4 16.3 7.2 45 6.2 NW 13 22 7 12 1009.5 1009.5 0.0
30/04:30pm 19.8 17.5 9.1 50 5.6 WNW 11 17 6 9 1009.3 - 0.0
30/04:00pm 18.5 17.3 12.9 70 3.2 N 11 13 6 7 1009.1 1009.1 0.0
30/03:30pm 18.7 18.1 13.6 72 2.9 N 9 13 5 7 1009.4 - 0.0
30/03:00pm 19.7 18.5 12.9 65 3.8 NNE 11 19 6 10 1009.3 1009.3 0.0
30/02:30pm 19.6 17.6 12.8 65 3.8 N 15 19 8 10 1009.3 - 0.0
30/02:00pm 19.5 17.4 12.5 64 3.9 NNE 15 17 8 9 1009.5 1009.5 0.0
30/01:30pm 19.1 16.8 13.1 68 3.4 N 17 19 9 10 1009.6 - 0.0
30/01:00pm 18.7 16.6 12.5 67 3.5 N 15 19 8 10 1009.9 1009.9 0.0
30/12:30pm 18.2 15.7 12.4 69 3.2 N 17 20 9 11 1010.3 - 0.0
30/12:00pm 18.6 16.0 12.1 66 3.6 NNE 17 20 9 11 1010.5 1010.5 0.0
30/11:30am 19.9 16.3 10.0 53 5.3 N 19 24 10 13 1010.9 - 0.0
30/11:00am 20.6 17.6 9.2 48 6.1 N 15 20 8 11 1011.4 1011.4 0.0
30/10:30am 19.7 16.6 11.5 59 4.5 N 19 26 10 14 1011.7 - 0.0

Other Formats:

Comma delimited format used in spreadsheet applications
http://www.bom.gov.au/fwo/IDN60801/IDN60801.94934.axf

JavaScript Object Notation format (JSON) in row-major order
http://www.bom.gov.au/fwo/IDN60801/IDN60801.94934.json